createdAt,value
2023-01-23T00:02:07.572Z,1.70
2023-01-23T00:04:34.089Z,1.40
2023-01-23T00:07:00.542Z,1.73
2023-01-23T00:09:27.075Z,1.60
2023-01-23T00:11:53.550Z,1.45
2023-01-23T00:14:20.554Z,1.50
2023-01-23T00:16:46.998Z,1.37
2023-01-23T00:19:13.494Z,1.55
2023-01-23T00:21:40.488Z,1.45
2023-01-23T00:24:06.941Z,1.40
2023-01-23T00:26:33.460Z,1.40
2023-01-23T00:28:59.953Z,1.40
2023-01-23T00:31:26.551Z,1.70
2023-01-23T00:33:53.141Z,1.40
2023-01-23T00:36:20.140Z,1.20
2023-01-23T00:38:46.641Z,1.30
2023-01-23T00:41:13.106Z,1.38
2023-01-23T00:43:39.536Z,1.60
2023-01-23T00:46:06.047Z,1.73
2023-01-23T00:48:32.511Z,1.75
2023-01-23T00:50:58.988Z,1.33
2023-01-23T00:53:26.000Z,1.40
2023-01-23T00:55:52.475Z,1.50
2023-01-23T00:58:18.984Z,1.40
2023-01-23T01:00:45.415Z,1.83
2023-01-23T01:03:11.917Z,1.50
2023-01-23T01:05:38.414Z,1.10
2023-01-23T01:08:04.929Z,1.40
2023-01-23T01:10:31.449Z,1.23
2023-01-23T01:12:57.949Z,1.48
2023-01-23T01:15:24.963Z,1.45
2023-01-23T01:17:51.433Z,1.23
2023-01-23T01:20:18.309Z,1.15
2023-01-23T01:22:45.434Z,1.30
2023-01-23T01:25:11.884Z,1.57
2023-01-23T01:27:38.393Z,1.30
2023-01-23T01:30:04.834Z,1.40
2023-01-23T01:32:31.287Z,1.48
2023-01-23T01:34:57.720Z,1.50
2023-01-23T01:37:24.220Z,1.20
2023-01-23T01:39:50.706Z,1.27
2023-01-23T01:42:17.168Z,1.50
2023-01-23T01:44:43.693Z,1.50
2023-01-23T01:47:10.181Z,1.30
2023-01-23T01:49:36.621Z,1.48
2023-01-23T01:52:03.094Z,1.33
2023-01-23T01:54:29.539Z,1.40
2023-01-23T01:56:55.968Z,1.50
2023-01-23T01:59:22.475Z,1.40
2023-01-23T02:01:49.026Z,1.40
2023-01-23T02:04:15.502Z,1.33
2023-01-23T02:06:41.992Z,1.60
2023-01-23T02:09:08.459Z,1.17
2023-01-23T02:11:35.409Z,1.52
2023-01-23T02:14:01.898Z,1.20
2023-01-23T02:16:28.577Z,1.48
2023-01-23T02:18:55.109Z,1.52
2023-01-23T02:21:23.193Z,1.58
2023-01-23T02:23:51.383Z,1.60
2023-01-23T02:26:17.859Z,1.42
2023-01-23T02:28:44.344Z,1.45
2023-01-23T02:31:10.865Z,1.10
2023-01-23T02:33:37.336Z,1.33
2023-01-23T02:36:04.310Z,1.70
2023-01-23T02:38:31.294Z,1.38
2023-01-23T02:40:57.750Z,1.23
2023-01-23T02:43:24.714Z,1.80
2023-01-23T02:45:51.177Z,1.20
2023-01-23T02:48:17.700Z,1.52
2023-01-23T02:50:44.148Z,1.83
2023-01-23T02:53:11.109Z,1.35
2023-01-23T02:55:37.544Z,1.27
2023-01-23T02:58:04.027Z,1.58
2023-01-23T03:00:30.536Z,1.73
2023-01-23T03:02:57.026Z,1.40
2023-01-23T03:05:23.979Z,1.13
2023-01-23T03:07:50.462Z,1.83
2023-01-23T03:10:17.042Z,1.58
2023-01-23T03:12:43.586Z,1.40
2023-01-23T03:15:10.039Z,1.60
2023-01-23T03:17:36.534Z,1.25
2023-01-23T03:20:03.006Z,1.52
2023-01-23T03:22:29.482Z,1.50
2023-01-23T03:24:55.914Z,1.38
2023-01-23T03:27:22.354Z,1.30
2023-01-23T03:29:48.836Z,1.42
2023-01-23T03:32:15.325Z,1.58
2023-01-23T03:34:41.809Z,1.42
2023-01-23T03:37:08.285Z,1.80
2023-01-23T03:39:35.292Z,1.33
2023-01-23T03:42:01.775Z,1.40
2023-01-23T03:44:28.267Z,1.30
2023-01-23T03:46:54.766Z,1.30
2023-01-23T03:49:21.239Z,1.33
2023-01-23T03:51:47.682Z,1.27
2023-01-23T03:54:14.141Z,1.13
2023-01-23T03:56:40.575Z,1.60
2023-01-23T03:59:07.058Z,1.20
2023-01-23T04:01:33.506Z,1.77
2023-01-23T04:03:59.985Z,1.90
2023-01-23T04:06:26.494Z,1.42
2023-01-23T04:08:52.986Z,1.40
2023-01-23T04:11:19.482Z,1.17
2023-01-23T04:13:45.920Z,1.35
2023-01-23T04:16:12.439Z,1.75
2023-01-23T04:18:38.962Z,1.58
2023-01-23T04:21:05.525Z,1.40
2023-01-23T04:23:31.994Z,1.50
2023-01-23T04:25:58.964Z,1.70
2023-01-23T04:28:25.457Z,1.50
2023-01-23T04:30:52.020Z,1.75
2023-01-23T04:33:18.577Z,1.38
2023-01-23T04:35:45.023Z,1.58
2023-01-23T04:38:11.478Z,1.70
2023-01-23T04:40:37.985Z,1.23
2023-01-23T04:43:04.465Z,1.63
2023-01-23T04:45:30.891Z,1.55
2023-01-23T04:47:57.335Z,1.90
2023-01-23T04:50:23.812Z,1.80
2023-01-23T04:52:50.264Z,1.77
2023-01-23T04:55:16.737Z,1.52
2023-01-23T04:57:43.176Z,1.75
2023-01-23T05:00:09.650Z,1.83
2023-01-23T05:02:36.236Z,1.40
2023-01-23T05:05:02.891Z,1.40
2023-01-23T05:07:29.350Z,1.50
2023-01-23T05:09:55.788Z,1.85
2023-01-23T05:12:22.237Z,1.40
2023-01-23T05:14:48.684Z,1.65
2023-01-23T05:17:15.146Z,1.70
2023-01-23T05:19:41.602Z,2.03
2023-01-23T05:22:08.043Z,1.73
2023-01-23T05:24:34.484Z,1.70
2023-01-23T05:27:00.937Z,1.55
2023-01-23T05:29:27.424Z,1.80
2023-01-23T05:31:53.854Z,2.13
2023-01-23T05:34:20.310Z,1.60
2023-01-23T05:36:46.796Z,1.50
2023-01-23T05:39:13.239Z,1.48
2023-01-23T05:41:39.663Z,1.80
2023-01-23T05:44:06.155Z,1.98
2023-01-23T05:46:33.216Z,1.77
2023-01-23T05:48:59.701Z,1.70
2023-01-23T05:51:26.267Z,1.90
2023-01-23T05:53:52.776Z,3.17
2023-01-23T05:56:19.237Z,1.63
2023-01-23T05:58:45.724Z,1.90
2023-01-23T06:01:12.237Z,1.80
2023-01-23T06:03:39.218Z,1.50
2023-01-23T06:06:05.700Z,1.87
2023-01-23T06:08:32.163Z,1.83
2023-01-23T06:10:58.626Z,1.83
2023-01-23T06:13:25.112Z,1.90
2023-01-23T06:15:51.654Z,1.88
2023-01-23T06:18:18.145Z,1.98
2023-01-23T06:20:44.584Z,2.00
2023-01-23T06:23:11.100Z,2.22
2023-01-23T06:25:37.549Z,1.70
2023-01-23T06:28:04.072Z,1.98
2023-01-23T06:30:30.662Z,2.08
2023-01-23T06:32:57.223Z,2.20
2023-01-23T06:35:23.663Z,2.00
2023-01-23T06:37:50.644Z,1.73
2023-01-23T06:40:17.308Z,2.00
2023-01-23T06:42:43.854Z,2.08
2023-01-23T06:45:10.311Z,1.85
2023-01-23T06:47:36.806Z,2.28
2023-01-23T06:50:03.314Z,1.80
2023-01-23T06:52:29.792Z,2.45
2023-01-23T06:54:56.240Z,1.75
2023-01-23T06:57:22.692Z,2.10
2023-01-23T06:59:49.201Z,2.20
2023-01-23T07:02:15.667Z,2.00
2023-01-23T07:04:42.148Z,2.17
2023-01-23T07:07:08.628Z,2.10
2023-01-23T07:09:35.103Z,2.55
2023-01-23T07:12:01.619Z,1.98
2023-01-23T07:14:28.063Z,2.00
2023-01-23T07:16:54.523Z,2.10
2023-01-23T07:19:20.997Z,1.90
2023-01-23T07:21:47.466Z,2.10
2023-01-23T07:24:13.928Z,2.33
2023-01-23T07:26:40.363Z,2.50
2023-01-23T07:29:06.799Z,1.98
2023-01-23T07:31:33.349Z,2.13
2023-01-23T07:33:59.801Z,2.20
2023-01-23T07:36:26.291Z,2.13
2023-01-23T07:38:53.268Z,2.53
2023-01-23T07:41:19.719Z,2.65
2023-01-23T07:43:46.201Z,2.03
2023-01-23T07:46:12.649Z,2.35
2023-01-23T07:48:39.590Z,2.67
2023-01-23T07:51:06.071Z,2.60
2023-01-23T07:53:33.073Z,2.53
2023-01-23T07:55:59.566Z,2.00
2023-01-23T07:58:26.014Z,1.98
2023-01-23T08:00:52.564Z,1.75
2023-01-23T08:03:19.119Z,2.20
2023-01-23T08:05:45.621Z,2.00
2023-01-23T08:08:13.788Z,2.25
2023-01-23T08:10:40.488Z,2.30
2023-01-23T08:13:07.001Z,2.70
2023-01-23T08:15:33.522Z,2.65
2023-01-23T08:17:59.979Z,2.35
2023-01-23T08:20:26.454Z,2.50
2023-01-23T08:22:52.971Z,2.28
2023-01-23T08:25:19.432Z,2.60
2023-01-23T08:27:45.923Z,2.70
2023-01-23T08:30:12.465Z,2.17
2023-01-23T08:32:38.975Z,2.03
2023-01-23T08:35:05.440Z,2.33
2023-01-23T08:37:31.950Z,2.50
2023-01-23T08:39:58.437Z,2.30
2023-01-23T08:42:24.919Z,2.42
2023-01-23T08:44:51.444Z,2.55
2023-01-23T08:47:17.919Z,2.38
2023-01-23T08:49:44.908Z,2.47
2023-01-23T08:52:11.384Z,2.60
2023-01-23T08:54:38.369Z,2.25
2023-01-23T08:57:04.849Z,3.23
2023-01-23T08:59:31.353Z,2.75
2023-01-23T09:01:57.823Z,2.63
2023-01-23T09:04:24.759Z,2.75
2023-01-23T09:06:51.260Z,2.67
2023-01-23T09:09:17.694Z,2.55
2023-01-23T09:11:44.165Z,2.72
2023-01-23T09:14:10.661Z,3.03
2023-01-23T09:16:37.192Z,2.60
2023-01-23T09:19:03.728Z,2.55
2023-01-23T09:21:30.258Z,3.00
2023-01-23T09:23:56.696Z,2.50
2023-01-23T09:26:23.180Z,2.65
2023-01-23T09:28:49.632Z,2.92
2023-01-23T09:31:16.056Z,2.65
2023-01-23T09:33:42.500Z,3.00
2023-01-23T09:36:08.948Z,2.40
2023-01-23T09:38:35.394Z,2.72
2023-01-23T09:41:01.832Z,2.53
2023-01-23T09:43:28.328Z,2.78
2023-01-23T09:45:54.835Z,2.45
2023-01-23T09:48:21.358Z,2.95
2023-01-23T09:50:47.823Z,3.40
2023-01-23T09:53:14.801Z,2.90
2023-01-23T09:55:41.284Z,2.40
2023-01-23T09:58:07.785Z,2.30
2023-01-23T10:00:34.266Z,3.10
2023-01-23T10:03:01.207Z,2.75
2023-01-23T10:05:27.692Z,2.92
2023-01-23T10:07:54.133Z,2.53
2023-01-23T10:10:20.848Z,2.78
2023-01-23T10:12:47.379Z,2.42
2023-01-23T10:15:13.825Z,2.80
2023-01-23T10:17:40.270Z,3.10
2023-01-23T10:20:06.702Z,2.90
2023-01-23T10:22:33.151Z,2.88
2023-01-23T10:24:59.594Z,2.90
2023-01-23T10:27:26.082Z,2.58
2023-01-23T10:29:52.577Z,3.17
2023-01-23T10:32:19.093Z,2.72
2023-01-23T10:34:45.530Z,2.90
2023-01-23T10:37:12.031Z,2.85
2023-01-23T10:39:38.506Z,3.08
2023-01-23T10:42:05.045Z,3.05
2023-01-23T10:44:31.494Z,2.80
2023-01-23T10:46:58.014Z,3.10
2023-01-23T10:49:24.496Z,3.20
2023-01-23T10:51:50.970Z,3.13
2023-01-23T10:54:30.727Z,3.05
2023-01-23T10:56:58.523Z,2.60
2023-01-23T10:59:25.005Z,2.90
2023-01-23T11:01:57.396Z,2.88
2023-01-23T11:04:24.251Z,2.88
2023-01-23T11:06:50.744Z,3.17
2023-01-23T11:09:17.184Z,2.97
2023-01-23T11:11:44.177Z,3.00
2023-01-23T11:14:10.609Z,3.13
2023-01-23T11:16:37.075Z,2.90
2023-01-23T11:19:03.550Z,3.00
2023-01-23T11:21:30.026Z,3.38
2023-01-23T11:23:56.501Z,3.30
2023-01-23T11:26:22.928Z,2.92
2023-01-23T11:28:49.387Z,3.10
2023-01-23T11:31:16.429Z,2.72
2023-01-23T11:33:43.048Z,3.30
2023-01-23T11:36:09.544Z,3.08
2023-01-23T11:38:37.712Z,3.50
2023-01-23T11:41:08.534Z,2.80
2023-01-23T11:43:35.071Z,2.67
2023-01-23T11:46:01.763Z,3.30
2023-01-23T11:48:28.310Z,2.80
2023-01-23T11:50:55.953Z,3.22
2023-01-23T11:56:07.502Z,3.58
2023-01-23T11:58:39.691Z,3.65
2023-01-23T12:01:11.997Z,2.92
2023-01-23T12:03:38.476Z,3.25
2023-01-23T12:08:51.429Z,3.30
2023-01-23T12:11:18.414Z,3.00
2023-01-23T12:13:44.905Z,3.40
2023-01-23T12:16:11.446Z,3.30
2023-01-23T12:18:40.188Z,3.78
2023-01-23T12:21:07.038Z,3.08
2023-01-23T12:23:33.528Z,3.58
2023-01-23T12:25:59.990Z,3.30
2023-01-23T12:28:26.475Z,3.78
2023-01-23T12:30:52.943Z,3.47
2023-01-23T12:33:19.415Z,3.70
2023-01-23T12:35:45.906Z,3.22
2023-01-23T12:38:12.388Z,3.45
2023-01-23T12:40:39.483Z,3.95
2023-01-23T12:43:06.025Z,3.50
2023-01-23T12:45:32.514Z,3.72
2023-01-23T12:48:00.852Z,3.75
2023-01-23T12:50:28.085Z,3.67
2023-01-23T12:52:54.533Z,3.43
2023-01-23T12:55:21.157Z,3.63
2023-01-23T12:58:00.148Z,4.13
2023-01-23T13:00:34.588Z,3.40
2023-01-23T13:03:01.225Z,3.80
2023-01-23T13:05:27.682Z,3.92
2023-01-23T13:07:54.134Z,3.70
2023-01-23T13:10:20.762Z,3.80
2023-01-23T13:12:47.357Z,4.05
2023-01-23T13:15:14.840Z,3.58
2023-01-23T13:17:41.506Z,3.90
2023-01-23T13:20:07.956Z,3.67
2023-01-23T13:22:34.472Z,4.63
2023-01-23T13:25:01.115Z,4.03
2023-01-23T13:27:27.558Z,3.63
2023-01-23T13:29:54.042Z,3.45
2023-01-23T13:32:20.608Z,3.50
2023-01-23T13:34:47.272Z,4.03
2023-01-23T13:37:13.782Z,4.40
2023-01-23T13:39:41.746Z,4.00
2023-01-23T13:42:08.234Z,4.38
2023-01-23T13:44:41.571Z,3.88
2023-01-23T14:21:54.611Z,4.40
2023-01-23T14:24:21.124Z,4.40
2023-01-23T14:26:47.575Z,4.43
2023-01-23T14:29:14.064Z,4.20
2023-01-23T14:31:40.578Z,4.72
2023-01-23T14:34:10.636Z,4.72
2023-01-23T14:36:38.498Z,4.68
2023-01-23T14:39:04.931Z,5.15
2023-01-23T14:41:31.943Z,4.57
2023-01-23T14:43:58.486Z,4.60
2023-01-23T14:46:25.071Z,5.25
2023-01-23T14:48:51.541Z,4.75
2023-01-23T14:51:19.791Z,4.70
2023-01-23T14:53:46.474Z,4.43
2023-01-23T14:56:12.937Z,4.70
2023-01-23T14:58:39.376Z,4.90
2023-01-23T15:01:05.931Z,4.45
2023-01-23T15:03:32.489Z,4.28
2023-01-23T15:05:59.108Z,4.78
2023-01-23T15:08:25.604Z,4.50
2023-01-23T15:10:52.107Z,4.53
2023-01-23T15:13:18.601Z,4.80
2023-01-23T15:15:45.095Z,4.15
2023-01-23T15:18:11.550Z,3.92
2023-01-23T15:20:38.066Z,4.63
2023-01-23T15:23:04.588Z,4.60
2023-01-23T15:25:31.074Z,4.68
2023-01-23T15:27:57.552Z,4.35
2023-01-23T15:30:24.038Z,3.75
2023-01-23T15:32:50.519Z,4.47
2023-01-23T15:35:17.017Z,3.78
2023-01-23T15:37:43.454Z,4.18
2023-01-23T15:40:09.889Z,4.53
2023-01-23T15:42:36.334Z,4.60
2023-01-23T15:45:02.808Z,4.65
2023-01-23T15:47:29.292Z,4.47
2023-01-23T15:49:55.775Z,4.30
2023-01-23T15:52:22.274Z,4.40
2023-01-23T15:54:48.815Z,4.25
2023-01-23T15:57:15.292Z,4.30
2023-01-23T15:59:42.246Z,4.47
2023-01-23T16:02:18.075Z,3.90
2023-01-23T16:04:51.320Z,4.35
2023-01-23T16:07:17.795Z,4.22
2023-01-23T16:09:44.251Z,4.32
2023-01-23T16:12:11.399Z,4.32
2023-01-23T16:14:38.018Z,4.53
2023-01-23T16:17:15.896Z,4.03
2023-01-23T16:19:42.645Z,4.20
2023-01-23T16:22:09.137Z,4.32
2023-01-23T16:24:35.643Z,4.32
2023-01-23T16:27:02.218Z,4.82
2023-01-23T16:29:28.705Z,3.53
2023-01-23T16:31:55.520Z,4.05
2023-01-23T16:34:22.042Z,4.28
2023-01-23T16:36:48.543Z,4.18
2023-01-23T16:39:15.021Z,4.13
2023-01-23T16:41:41.520Z,4.30
2023-01-23T16:44:08.013Z,3.63
2023-01-23T16:46:34.538Z,4.30
2023-01-23T16:49:00.998Z,4.88
2023-01-23T16:51:27.526Z,4.82
2023-01-23T16:53:53.978Z,3.95
2023-01-23T16:56:20.503Z,4.15
2023-01-23T16:58:47.209Z,4.50
2023-01-23T17:01:13.737Z,4.47
2023-01-23T17:03:40.276Z,3.90
2023-01-23T17:06:06.733Z,3.80
2023-01-23T17:08:33.216Z,4.50
2023-01-23T17:10:59.697Z,4.20
2023-01-23T17:13:26.189Z,3.83
2023-01-23T17:15:52.667Z,4.10
2023-01-23T17:18:19.643Z,4.50
2023-01-23T17:20:46.134Z,4.33
2023-01-23T17:23:12.567Z,4.10
2023-01-23T17:25:47.856Z,4.07
2023-01-23T17:28:20.950Z,3.70
2023-01-23T17:30:47.408Z,3.72
2023-01-23T17:33:13.951Z,3.90
2023-01-23T17:35:40.464Z,3.92
2023-01-23T17:38:06.967Z,3.35
2023-01-23T17:40:34.003Z,4.57
2023-01-23T17:43:00.687Z,4.03
2023-01-23T17:45:27.255Z,4.00
2023-01-23T17:47:54.287Z,3.97
2023-01-23T17:50:20.997Z,3.40
2023-01-23T17:52:47.611Z,4.10
2023-01-23T17:55:14.128Z,3.90
2023-01-23T17:57:40.624Z,3.80
2023-01-23T18:00:07.101Z,3.47
2023-01-23T18:02:33.603Z,3.63
2023-01-23T18:05:00.137Z,3.92
2023-01-23T18:07:27.129Z,4.15
2023-01-23T18:09:53.649Z,4.27
2023-01-23T18:12:20.137Z,3.33
2023-01-23T18:14:46.612Z,3.80
2023-01-23T18:17:13.751Z,3.90
2023-01-23T18:19:40.274Z,3.67
2023-01-23T18:22:06.728Z,3.92
2023-01-23T18:24:33.203Z,4.00
2023-01-23T18:26:59.660Z,3.72
2023-01-23T18:29:26.116Z,4.15
2023-01-23T18:31:52.692Z,3.95
2023-01-23T18:34:19.258Z,3.80
2023-01-23T18:36:46.227Z,3.53
2023-01-23T18:39:12.661Z,3.53
2023-01-23T18:41:39.188Z,3.40
2023-01-23T18:44:05.687Z,4.13
2023-01-23T18:46:32.223Z,3.70
2023-01-23T18:48:58.686Z,3.85
2023-01-23T18:51:25.141Z,3.72
2023-01-23T18:53:51.641Z,3.40
2023-01-23T18:56:18.123Z,3.50
2023-01-23T18:58:44.667Z,4.00
2023-01-23T19:01:11.172Z,3.70
2023-01-23T19:03:37.636Z,3.83
2023-01-23T19:06:04.127Z,3.92
2023-01-23T19:08:30.659Z,3.35
2023-01-23T19:10:57.153Z,3.58
2023-01-23T19:13:24.120Z,3.80
2023-01-23T19:15:50.668Z,3.90
2023-01-23T19:18:17.132Z,3.65
2023-01-23T19:20:43.623Z,4.20
2023-01-23T19:23:10.557Z,3.80
2023-01-23T19:25:37.539Z,4.18
2023-01-23T19:28:03.994Z,3.77
2023-01-23T19:30:30.490Z,3.63
2023-01-23T19:32:56.954Z,3.53
2023-01-23T19:35:23.431Z,3.95
2023-01-23T19:37:49.880Z,3.60
2023-01-23T19:40:16.829Z,3.85
2023-01-23T19:42:58.633Z,3.25
2023-01-23T19:45:27.983Z,3.53
2023-01-23T19:47:54.422Z,3.67
2023-01-23T19:50:20.931Z,3.45
2023-01-23T19:52:47.433Z,3.28
2023-01-23T19:55:13.915Z,3.40
2023-01-23T19:57:40.446Z,3.50
2023-01-23T20:00:06.938Z,3.75
2023-01-23T20:02:33.457Z,3.78
2023-01-23T20:04:59.977Z,3.53
2023-01-23T20:07:26.482Z,3.90
2023-01-23T20:09:52.985Z,4.13
2023-01-23T20:12:19.471Z,4.05
2023-01-23T20:14:45.980Z,3.60
2023-01-23T20:17:12.432Z,3.22
2023-01-23T20:19:38.942Z,3.88
2023-01-23T20:22:05.419Z,3.58
2023-01-23T20:24:31.922Z,3.40
2023-01-23T20:26:58.914Z,3.75
2023-01-23T20:29:25.388Z,3.95
2023-01-23T20:31:51.891Z,3.33
2023-01-23T20:34:18.422Z,3.60
2023-01-23T20:36:45.445Z,3.78
2023-01-23T20:39:11.893Z,3.20
2023-01-23T20:41:38.360Z,3.85
2023-01-23T20:44:04.836Z,3.17
2023-01-23T20:46:31.373Z,3.35
2023-01-23T20:48:57.832Z,3.72
2023-01-23T20:51:24.267Z,3.58
2023-01-23T20:53:50.795Z,3.40
2023-01-23T20:56:17.237Z,3.40
2023-01-23T20:58:43.677Z,3.58
2023-01-23T21:01:10.265Z,3.95
2023-01-23T21:03:36.723Z,3.90
2023-01-23T21:06:03.241Z,3.70
2023-01-23T21:08:30.191Z,3.88
2023-01-23T21:10:56.729Z,3.80
2023-01-23T21:13:23.259Z,4.15
2023-01-23T21:18:58.780Z,3.88
2023-01-23T21:21:25.228Z,3.70
2023-01-23T21:23:51.743Z,4.13
2023-01-23T21:26:18.255Z,3.30
2023-01-23T21:28:44.755Z,3.28
2023-01-23T21:31:11.350Z,3.78
2023-01-23T21:33:37.851Z,3.33
2023-01-23T21:36:04.359Z,3.13
2023-01-23T21:38:30.929Z,3.72
2023-01-23T21:40:57.393Z,4.00
2023-01-23T21:43:23.877Z,3.53
2023-01-23T21:45:50.328Z,3.53
2023-01-23T21:48:16.789Z,3.40
2023-01-23T21:50:43.283Z,4.20
2023-01-23T21:53:09.751Z,4.18
2023-01-23T21:55:36.195Z,3.33
2023-01-23T21:58:02.700Z,3.75
2023-01-23T22:00:29.152Z,3.72
2023-01-23T22:02:55.632Z,3.83
2023-01-23T22:05:22.959Z,3.55
2023-01-23T22:07:49.633Z,4.00
2023-01-23T22:10:16.103Z,3.83
2023-01-23T22:12:42.550Z,3.85
2023-01-23T22:15:09.054Z,3.67
2023-01-23T22:17:35.558Z,3.97
2023-01-23T22:20:02.004Z,4.10
2023-01-23T22:22:28.521Z,3.40
2023-01-23T22:24:55.466Z,3.50
2023-01-23T22:27:23.333Z,3.45
2023-01-23T22:32:16.391Z,3.80
2023-01-23T22:34:42.979Z,3.95
2023-01-23T22:37:09.438Z,4.10
2023-01-23T22:39:36.359Z,4.13
2023-01-23T22:42:02.817Z,4.30
2023-01-23T22:44:29.297Z,4.05
2023-01-23T22:46:55.846Z,3.83
2023-01-23T22:49:22.489Z,3.40
2023-01-23T22:51:48.982Z,3.17
2023-01-23T22:54:15.460Z,4.18
2023-01-23T22:56:41.920Z,3.85
2023-01-23T22:59:08.906Z,3.90
2023-01-23T23:01:35.393Z,4.00
2023-01-23T23:04:01.902Z,3.78
2023-01-23T23:06:28.373Z,3.65
2023-01-23T23:08:54.880Z,3.78
2023-01-23T23:11:21.367Z,3.92
2023-01-23T23:13:47.823Z,3.63
2023-01-23T23:16:14.294Z,4.10
2023-01-23T23:18:40.856Z,3.53
2023-01-23T23:21:07.337Z,3.80
2023-01-23T23:23:33.819Z,3.55
2023-01-23T23:26:00.279Z,4.22
2023-01-23T23:28:26.804Z,3.85
2023-01-23T23:30:53.245Z,4.25
2023-01-23T23:33:19.711Z,4.28
2023-01-23T23:35:46.699Z,3.90
2023-01-23T23:38:13.163Z,4.57
2023-01-23T23:40:39.620Z,4.30
2023-01-23T23:43:06.550Z,3.88
2023-01-23T23:45:33.059Z,3.63
2023-01-23T23:47:59.598Z,3.95
2023-01-23T23:50:26.040Z,3.95
2023-01-23T23:52:52.510Z,4.30
2023-01-23T23:55:19.134Z,3.90
2023-01-23T23:57:45.740Z,3.88
